createdAt,value
2018-09-29T00:00:23.306Z,99641.81
2018-09-29T00:00:54.407Z,99637.14
2018-09-29T00:01:26.423Z,99640.63
2018-09-29T00:01:57.537Z,99639.73
2018-09-29T00:02:28.677Z,99641.79
2018-09-29T00:02:59.789Z,99640.02
2018-09-29T00:03:30.923Z,99635.69
2018-09-29T00:04:02.022Z,99634.78
2018-09-29T00:04:33.182Z,99635.69
2018-09-29T00:05:04.275Z,99637.45
2018-09-29T00:05:35.412Z,99639.61
2018-09-29T00:06:06.520Z,99634.44
2018-09-29T00:06:37.633Z,99634.44
2018-09-29T00:07:08.799Z,99636.18
2018-09-29T00:07:39.914Z,99641.81
2018-09-29T00:08:11.046Z,99634.44
2018-09-29T00:08:42.151Z,99633.13
2018-09-29T00:09:13.290Z,99635.80
2018-09-29T00:09:44.394Z,99640.51
2018-09-29T00:10:15.539Z,99634.38
2018-09-29T00:10:46.674Z,99639.55
2018-09-29T00:11:17.794Z,99635.19
2018-09-29T00:11:48.927Z,99634.28
2018-09-29T00:12:20.058Z,99632.92
2018-09-29T00:12:51.165Z,99632.86
2018-09-29T00:13:22.271Z,99638.44
2018-09-29T00:13:53.406Z,99634.98
2018-09-29T00:14:24.540Z,99637.13
2018-09-29T00:14:55.669Z,99631.05
2018-09-29T00:15:26.776Z,99634.98
2018-09-29T00:15:57.938Z,99636.69
2018-09-29T00:16:29.084Z,99632.77
2018-09-29T00:17:00.199Z,99628.50
2018-09-29T00:17:31.327Z,99632.80
2018-09-29T00:18:02.437Z,99631.14
2018-09-29T00:18:33.537Z,99629.89
2018-09-29T00:19:04.661Z,99630.36
2018-09-29T00:19:35.794Z,99626.03
2018-09-29T00:20:06.935Z,99626.93
2018-09-29T00:20:38.082Z,99632.98
2018-09-29T00:21:09.187Z,99631.20
2018-09-29T00:21:40.298Z,99633.34
2018-09-29T00:22:11.419Z,99632.16
2018-09-29T00:22:42.531Z,99630.95
2018-09-29T00:23:13.622Z,99633.13
2018-09-29T00:23:44.756Z,99633.53
2018-09-29T00:24:15.860Z,99628.30
2018-09-29T00:24:47.004Z,99624.81
2018-09-29T00:25:18.152Z,99627.83
2018-09-29T00:25:49.255Z,99628.70
2018-09-29T00:26:20.354Z,99626.53
2018-09-29T00:26:51.446Z,99622.66
2018-09-29T00:27:22.564Z,99623.97
2018-09-29T00:27:53.722Z,99624.03
2018-09-29T00:28:24.847Z,99622.31
2018-09-29T00:28:55.950Z,99623.62
2018-09-29T00:29:27.054Z,99620.13
2018-09-29T00:29:58.174Z,99626.73
2018-09-29T00:30:29.288Z,99620.26
2018-09-29T00:31:00.403Z,99624.18
2018-09-29T00:31:31.501Z,99625.08
2018-09-29T00:32:02.610Z,99624.24
2018-09-29T00:32:33.724Z,99620.34
2018-09-29T00:33:04.824Z,99618.20
2018-09-29T00:33:35.926Z,99618.69
2018-09-29T00:34:07.100Z,99618.32
2018-09-29T00:34:38.207Z,99620.53
2018-09-29T00:35:09.303Z,99614.89
2018-09-29T00:35:40.413Z,99615.91
2018-09-29T00:36:11.553Z,99611.27
2018-09-29T00:36:42.707Z,99614.00
2018-09-29T00:37:13.807Z,99610.97
2018-09-29T00:37:44.959Z,99609.67
2018-09-29T00:38:16.076Z,99614.48
2018-09-29T00:38:47.177Z,99613.16
2018-09-29T00:39:18.280Z,99611.38
2018-09-29T00:39:49.417Z,99613.53
2018-09-29T00:40:20.554Z,99611.87
2018-09-29T00:40:51.653Z,99616.27
2018-09-29T00:41:22.750Z,99617.63
2018-09-29T00:41:53.858Z,99616.34
2018-09-29T00:42:24.965Z,99610.69
2018-09-29T00:42:56.070Z,99613.73
2018-09-29T00:43:27.192Z,99612.08
2018-09-29T00:43:58.325Z,99614.70
2018-09-29T00:44:29.428Z,99615.22
2018-09-29T00:45:00.615Z,99610.89
2018-09-29T00:45:31.722Z,99607.38
2018-09-29T00:46:02.822Z,99607.44
2018-09-29T00:46:33.925Z,99608.83
2018-09-29T00:47:05.050Z,99611.44
2018-09-29T00:47:36.188Z,99608.02
2018-09-29T00:48:07.291Z,99610.25
2018-09-29T00:48:38.390Z,99611.56
2018-09-29T00:49:09.490Z,99605.58
2018-09-29T00:49:40.585Z,99608.68
2018-09-29T00:50:11.724Z,99606.19
2018-09-29T00:50:42.839Z,99608.82
2018-09-29T00:51:13.937Z,99607.98
2018-09-29T00:51:45.070Z,99610.66
2018-09-29T00:52:16.178Z,99611.98
2018-09-29T00:52:47.313Z,99605.97
2018-09-29T00:53:18.413Z,99604.27
2018-09-29T00:53:49.573Z,99601.23
2018-09-29T00:54:20.729Z,99604.75
2018-09-29T00:54:51.876Z,99597.44
2018-09-29T00:55:23.037Z,99595.77
2018-09-29T00:55:54.207Z,99599.28
2018-09-29T00:56:25.301Z,99602.74
2018-09-29T00:56:56.418Z,99597.58
2018-09-29T00:57:27.562Z,99600.25
2018-09-29T00:57:58.654Z,99593.30
2018-09-29T00:58:29.753Z,99594.61
2018-09-29T00:59:00.859Z,99596.34
2018-09-29T00:59:31.999Z,99596.47
2018-09-29T01:00:03.136Z,99593.38
2018-09-29T01:00:34.287Z,99598.23
2018-09-29T01:01:05.417Z,99593.91
2018-09-29T01:01:36.532Z,99593.50
2018-09-29T01:02:07.651Z,99592.25
2018-09-29T01:02:38.769Z,99597.56
2018-09-29T01:03:09.877Z,99589.31
2018-09-29T01:03:41.006Z,99593.20
2018-09-29T01:04:12.115Z,99591.90
2018-09-29T01:04:43.238Z,99592.27
2018-09-29T01:05:14.371Z,99594.88
2018-09-29T01:05:45.559Z,99592.27
2018-09-29T01:06:16.677Z,99587.92
2018-09-29T01:06:47.791Z,99592.33
2018-09-29T01:07:18.889Z,99591.44
2018-09-29T01:07:50.014Z,99589.28
2018-09-29T01:08:21.120Z,99592.27
2018-09-29T01:08:52.224Z,99587.92
2018-09-29T01:09:23.336Z,99595.30
2018-09-29T01:09:54.499Z,99592.69
2018-09-29T01:10:25.626Z,99591.38
2018-09-29T01:10:56.744Z,99591.78
2018-09-29T01:11:27.854Z,99590.13
2018-09-29T01:11:58.963Z,99587.92
2018-09-29T01:12:30.095Z,99588.77
2018-09-29T01:13:01.191Z,99591.31
2018-09-29T01:13:32.296Z,99592.27
2018-09-29T01:14:03.404Z,99590.97
2018-09-29T01:14:34.540Z,99594.86
2018-09-29T01:15:05.684Z,99592.69
2018-09-29T01:15:36.806Z,99591.84
2018-09-29T01:16:07.941Z,99594.51
2018-09-29T01:16:39.080Z,99588.87
2018-09-29T01:17:10.230Z,99591.48
2018-09-29T01:17:41.391Z,99595.30
2018-09-29T01:18:12.530Z,99591.38
2018-09-29T01:18:43.641Z,99588.33
2018-09-29T01:19:14.771Z,99593.98
2018-09-29T01:19:45.945Z,99587.45
2018-09-29T01:20:17.051Z,99593.56
2018-09-29T01:20:48.152Z,99592.69
2018-09-29T01:21:19.268Z,99587.05
2018-09-29T01:21:50.419Z,99587.86
2018-09-29T01:22:21.513Z,99587.86
2018-09-29T01:22:52.608Z,99587.38
2018-09-29T01:23:23.768Z,99589.98
2018-09-29T01:23:54.899Z,99587.31
2018-09-29T01:24:26.001Z,99590.83
2018-09-29T01:24:57.113Z,99593.01
2018-09-29T01:25:28.293Z,99594.26
2018-09-29T01:25:59.430Z,99594.20
2018-09-29T01:26:30.571Z,99593.66
2018-09-29T01:27:01.695Z,99598.00
2018-09-29T01:27:32.815Z,99592.29
2018-09-29T01:28:03.961Z,99597.52
2018-09-29T01:28:35.065Z,99594.91
2018-09-29T01:29:06.196Z,99596.33
2018-09-29T01:29:37.320Z,99599.84
2018-09-29T01:30:08.413Z,99594.61
2018-09-29T01:30:39.563Z,99590.63
2018-09-29T01:31:10.663Z,99593.24
2018-09-29T01:31:41.813Z,99596.33
2018-09-29T01:32:12.961Z,99590.22
2018-09-29T01:32:44.099Z,99592.84
2018-09-29T01:33:15.207Z,99592.89
2018-09-29T01:33:46.302Z,99592.84
2018-09-29T01:34:17.443Z,99592.34
2018-09-29T01:34:48.568Z,99589.67
2018-09-29T01:35:19.712Z,99591.39
2018-09-29T01:35:50.854Z,99588.78
2018-09-29T01:36:21.959Z,99587.06
2018-09-29T01:36:53.059Z,99589.27
2018-09-29T01:37:24.160Z,99588.86
2018-09-29T01:37:55.302Z,99591.13
2018-09-29T01:38:26.417Z,99587.67
2018-09-29T01:38:57.545Z,99591.18
2018-09-29T01:39:28.650Z,99588.56
2018-09-29T01:39:59.751Z,99586.85
2018-09-29T01:40:30.886Z,99596.52
2018-09-29T01:41:02.021Z,99593.09
2018-09-29T01:41:33.113Z,99587.05
2018-09-29T01:42:04.277Z,99589.66
2018-09-29T01:42:35.414Z,99592.85
2018-09-29T01:43:06.588Z,99586.34
2018-09-29T01:43:37.684Z,99587.22
2018-09-29T01:44:08.789Z,99594.16
2018-09-29T01:44:39.913Z,99588.94
2018-09-29T01:45:11.043Z,99588.47
2018-09-29T01:45:42.151Z,99587.66
2018-09-29T01:46:13.257Z,99585.94
2018-09-29T01:46:44.365Z,99588.17
2018-09-29T01:47:15.512Z,99585.94
2018-09-29T01:47:46.639Z,99589.86
2018-09-29T01:48:17.805Z,99590.73
2018-09-29T01:48:48.942Z,99585.56
2018-09-29T01:49:20.058Z,99586.41
2018-09-29T01:49:51.155Z,99590.73
2018-09-29T01:50:22.261Z,99585.94
2018-09-29T01:50:53.362Z,99583.32
2018-09-29T01:51:24.468Z,99581.59
2018-09-29T01:51:55.606Z,99583.73
2018-09-29T01:52:26.710Z,99587.24
2018-09-29T01:52:57.806Z,99575.00
2018-09-29T01:53:28.922Z,99578.91
2018-09-29T01:54:00.053Z,99577.61
2018-09-29T01:54:31.166Z,99581.53
2018-09-29T01:55:02.263Z,99578.86
2018-09-29T01:55:33.372Z,99580.16
2018-09-29T01:56:04.473Z,99579.33
2018-09-29T01:56:35.653Z,99576.25
2018-09-29T01:57:06.759Z,99579.33
2018-09-29T01:57:37.930Z,99581.45
2018-09-29T01:58:09.046Z,99580.92
2018-09-29T01:58:40.171Z,99579.56
2018-09-29T01:59:11.313Z,99583.05
2018-09-29T01:59:42.415Z,99583.86
2018-09-29T02:00:13.538Z,99582.23
2018-09-29T02:00:44.697Z,99577.61
2018-09-29T02:01:15.813Z,99578.37
2018-09-29T02:01:46.943Z,99582.23
2018-09-29T02:02:18.088Z,99578.31
2018-09-29T02:02:49.937Z,99576.16
2018-09-29T02:03:21.067Z,99568.03
2018-09-29T02:03:52.199Z,99578.48
2018-09-29T02:04:23.305Z,99570.23
2018-09-29T02:04:54.426Z,99568.95
2018-09-29T02:05:25.530Z,99568.17
2018-09-29T02:05:56.633Z,99569.89
2018-09-29T02:06:27.731Z,99568.17
2018-09-29T02:06:58.883Z,99566.05
2018-09-29T02:07:30.034Z,99572.58
2018-09-29T02:08:01.325Z,99570.86
2018-09-29T02:08:32.396Z,99568.66
2018-09-29T02:09:03.502Z,99571.73
2018-09-29T02:09:34.634Z,99568.66
2018-09-29T02:10:05.738Z,99567.82
2018-09-29T02:10:36.868Z,99569.97
2018-09-29T02:11:07.972Z,99569.97
2018-09-29T02:11:39.118Z,99571.33
2018-09-29T02:12:10.250Z,99567.84
2018-09-29T02:12:41.430Z,99568.31
2018-09-29T02:13:12.547Z,99566.16
2018-09-29T02:13:43.748Z,99568.85
2018-09-29T02:14:14.856Z,99565.00
2018-09-29T02:14:45.949Z,99571.47
2018-09-29T02:15:17.079Z,99565.41
2018-09-29T02:15:48.218Z,99571.88
2018-09-29T02:16:19.395Z,99572.28
2018-09-29T02:16:50.542Z,99568.80
2018-09-29T02:17:21.758Z,99570.57
2018-09-29T02:17:52.890Z,99569.38
2018-09-29T02:18:24.067Z,99566.36
2018-09-29T02:18:55.169Z,99572.48
2018-09-29T02:19:26.294Z,99569.86
2018-09-29T02:19:57.438Z,99567.66
2018-09-29T02:20:28.562Z,99569.38
2018-09-29T02:20:59.681Z,99572.36
2018-09-29T02:21:30.795Z,99574.08
2018-09-29T02:22:01.898Z,99572.36
2018-09-29T02:22:33.002Z,99569.38
2018-09-29T02:23:04.139Z,99575.85
2018-09-29T02:23:35.291Z,99571.94
2018-09-29T02:24:06.404Z,99573.30
2018-09-29T02:24:37.523Z,99573.19
2018-09-29T02:25:08.637Z,99573.59
2018-09-29T02:25:39.769Z,99573.07
2018-09-29T02:26:10.878Z,99576.09
2018-09-29T02:26:41.973Z,99575.69
2018-09-29T02:27:13.116Z,99579.22
2018-09-29T02:27:44.275Z,99574.44
2018-09-29T02:28:15.390Z,99570.98
2018-09-29T02:28:46.548Z,99574.37
2018-09-29T02:29:17.622Z,99575.73
2018-09-29T02:29:48.722Z,99569.27
2018-09-29T02:30:19.835Z,99568.85
2018-09-29T02:30:51.013Z,99569.73
2018-09-29T02:31:22.110Z,99569.75
2018-09-29T02:31:53.215Z,99571.06
2018-09-29T02:32:24.894Z,99572.77
2018-09-29T02:32:55.994Z,99573.19
2018-09-29T02:33:27.113Z,99573.48
2018-09-29T02:33:58.229Z,99569.97
2018-09-29T02:34:29.342Z,99571.27
2018-09-29T02:35:00.497Z,99574.35
2018-09-29T02:35:31.603Z,99567.06
2018-09-29T02:36:02.746Z,99566.70
2018-09-29T02:36:33.844Z,99564.53
2018-09-29T02:37:04.947Z,99568.45
2018-09-29T02:37:36.085Z,99567.61
2018-09-29T02:38:07.211Z,99561.13
2018-09-29T02:38:38.327Z,99573.78
2018-09-29T02:39:09.430Z,99571.17
2018-09-29T02:39:40.584Z,99566.84
2018-09-29T02:40:11.691Z,99571.31
2018-09-29T02:40:42.804Z,99570.55
2018-09-29T02:41:13.898Z,99118.61
2018-09-29T02:41:45.048Z,99568.34
2018-09-29T02:42:16.174Z,99562.70
2018-09-29T02:42:47.305Z,99564.02
2018-09-29T02:43:18.411Z,99564.02
2018-09-29T02:43:49.540Z,99562.77
2018-09-29T02:44:20.665Z,99561.07
2018-09-29T02:44:51.811Z,99557.21
2018-09-29T02:45:22.954Z,99560.66
2018-09-29T02:45:54.082Z,99559.77
2018-09-29T02:46:25.189Z,99561.91
2018-09-29T02:46:56.291Z,99560.25
2018-09-29T02:47:27.437Z,99559.00
2018-09-29T02:47:58.586Z,99559.47
2018-09-29T02:48:29.671Z,99559.91
2018-09-29T02:49:00.829Z,99559.06
2018-09-29T02:49:31.953Z,99558.16
2018-09-29T02:50:03.063Z,99561.27
2018-09-29T02:50:34.167Z,99561.31
2018-09-29T02:51:05.308Z,99554.44
2018-09-29T02:51:36.410Z,99560.55
2018-09-29T02:52:07.609Z,99558.84
2018-09-29T02:52:38.746Z,99559.37
2018-09-29T02:53:09.872Z,99560.74
2018-09-29T02:53:40.987Z,99561.20
2018-09-29T02:54:12.090Z,99558.19
2018-09-29T02:54:43.249Z,99561.23
2018-09-29T02:55:14.350Z,99558.27
2018-09-29T02:55:45.464Z,99558.73
2018-09-29T02:56:16.613Z,99554.34
2018-09-29T02:56:47.709Z,99556.90
2018-09-29T02:57:18.818Z,99556.52
2018-09-29T02:57:49.937Z,99557.83
2018-09-29T02:58:21.043Z,99553.45
2018-09-29T02:58:52.194Z,99549.95
2018-09-29T02:59:23.311Z,99552.61
2018-09-29T02:59:54.453Z,99549.59
2018-09-29T03:00:25.569Z,99548.70
2018-09-29T03:00:56.714Z,99548.34
2018-09-29T03:01:27.859Z,99545.34
2018-09-29T03:01:58.969Z,99547.95
2018-09-29T03:02:30.144Z,99547.22
2018-09-29T03:03:01.285Z,99545.50
2018-09-29T03:03:32.396Z,99541.25
2018-09-29T03:04:03.557Z,99543.02
2018-09-29T03:04:34.677Z,99546.58
2018-09-29T03:05:05.791Z,99541.36
2018-09-29T03:05:36.903Z,99540.90
2018-09-29T03:06:08.035Z,99541.42
2018-09-29T03:06:39.154Z,99534.97
2018-09-29T03:07:10.329Z,99544.97
2018-09-29T03:07:41.439Z,99543.69
2018-09-29T03:08:12.548Z,99542.85
2018-09-29T03:08:43.663Z,99547.71
2018-09-29T03:09:14.770Z,99547.78
2018-09-29T03:09:45.877Z,99547.00
2018-09-29T03:10:16.988Z,99545.28
2018-09-29T03:10:48.123Z,99544.46
2018-09-29T03:11:19.278Z,99541.06
2018-09-29T03:11:50.379Z,99545.88
2018-09-29T03:12:21.499Z,99544.27
2018-09-29T03:12:52.659Z,99542.55
2018-09-29T03:13:23.866Z,99543.92
2018-09-29T03:13:54.974Z,99539.22
2018-09-29T03:14:26.101Z,99542.26
2018-09-29T03:14:57.219Z,99541.01
2018-09-29T03:15:28.321Z,99543.20
2018-09-29T03:15:59.458Z,99544.51
2018-09-29T03:16:30.557Z,99550.20
2018-09-29T03:17:01.663Z,99547.70
2018-09-29T03:17:32.786Z,99548.70
2018-09-29T03:18:03.886Z,99550.41
2018-09-29T03:18:35.048Z,99543.96
2018-09-29T03:19:06.225Z,99547.10
2018-09-29T03:19:37.295Z,99542.83
2018-09-29T03:20:08.402Z,99542.42
2018-09-29T03:20:39.507Z,99546.33
2018-09-29T03:21:10.613Z,99540.27
2018-09-29T03:21:41.724Z,99545.03
2018-09-29T03:22:12.871Z,99542.01
2018-09-29T03:22:43.997Z,99545.92
2018-09-29T03:23:15.218Z,99543.31
2018-09-29T03:23:46.348Z,99539.50
2018-09-29T03:24:17.466Z,99542.59
2018-09-29T03:24:48.597Z,99544.41
2018-09-29T03:25:19.700Z,99540.50
2018-09-29T03:25:50.842Z,99538.83
2018-09-29T03:26:21.977Z,99537.95
2018-09-29T03:26:53.097Z,99540.61
2018-09-29T03:27:24.199Z,99543.27
2018-09-29T03:27:55.306Z,99544.58
2018-09-29T03:28:26.423Z,99542.45
2018-09-29T03:28:57.587Z,99541.63
2018-09-29T03:29:28.719Z,99540.37
2018-09-29T03:29:59.827Z,99547.34
2018-09-29T03:30:30.931Z,99544.33
2018-09-29T03:31:02.072Z,99550.84
2018-09-29T03:31:33.198Z,99544.37
2018-09-29T03:32:04.350Z,99549.61
2018-09-29T03:32:35.483Z,99546.64
2018-09-29T03:33:06.596Z,99552.37
2018-09-29T03:33:37.718Z,99549.92
2018-09-29T03:34:08.850Z,99550.44
2018-09-29T03:34:39.953Z,99552.22
2018-09-29T03:35:11.092Z,99547.52
2018-09-29T03:35:42.601Z,99549.71
2018-09-29T03:36:13.710Z,99554.14
2018-09-29T03:36:44.809Z,99554.25
2018-09-29T03:37:15.927Z,99550.50
2018-09-29T03:37:47.030Z,99550.70
2018-09-29T03:38:18.144Z,99546.83
2018-09-29T03:38:49.242Z,99552.50
2018-09-29T03:39:20.334Z,99553.38
2018-09-29T03:39:51.449Z,99550.83
2018-09-29T03:40:22.551Z,99551.67
2018-09-29T03:40:53.710Z,99556.08
2018-09-29T03:41:24.829Z,99554.83
2018-09-29T03:41:55.959Z,99552.33
2018-09-29T03:42:27.059Z,99553.26
2018-09-29T03:42:58.181Z,99554.10
2018-09-29T03:43:29.291Z,99557.22
2018-09-29T03:44:00.422Z,99555.08
2018-09-29T03:44:31.561Z,99556.43
2018-09-29T03:45:02.681Z,99556.90
2018-09-29T03:45:33.778Z,99558.30
2018-09-29T03:46:04.887Z,99557.94
2018-09-29T03:46:36.011Z,99555.79
2018-09-29T03:47:07.165Z,99557.05
2018-09-29T03:47:38.263Z,99551.02
2018-09-29T03:48:09.364Z,99557.09
2018-09-29T03:48:40.462Z,99556.63
2018-09-29T03:49:11.563Z,99551.47
2018-09-29T03:49:42.679Z,99557.09
2018-09-29T03:50:13.780Z,99555.79
2018-09-29T03:50:44.905Z,99554.48
2018-09-29T03:51:15.993Z,99560.11
2018-09-29T03:51:47.096Z,99559.20
2018-09-29T03:52:18.239Z,99557.05
2018-09-29T03:52:49.361Z,99551.37
2018-09-29T03:53:20.494Z,99561.00
2018-09-29T03:53:51.610Z,99561.47
2018-09-29T03:54:22.718Z,99556.27
2018-09-29T03:54:53.876Z,99558.45
2018-09-29T03:55:24.987Z,99558.45
2018-09-29T03:55:56.130Z,99555.84
2018-09-29T03:56:27.227Z,99556.68
2018-09-29T03:56:58.343Z,99559.23
2018-09-29T03:57:29.477Z,99559.70
2018-09-29T03:58:00.583Z,99557.51
2018-09-29T03:58:31.692Z,99559.70
2018-09-29T03:59:02.785Z,99557.56
2018-09-29T03:59:33.881Z,99565.84
2018-09-29T04:00:05.016Z,99559.34
2018-09-29T04:00:36.167Z,99563.25
2018-09-29T04:01:07.284Z,99561.10
2018-09-29T04:01:38.397Z,99564.59
2018-09-29T04:02:09.493Z,99558.54
2018-09-29T04:02:40.612Z,99560.31
2018-09-29T04:03:11.754Z,99562.92
2018-09-29T04:03:42.857Z,99561.66
2018-09-29T04:04:13.959Z,99557.34
2018-09-29T04:04:45.072Z,99561.70
2018-09-29T04:05:16.188Z,99558.73
2018-09-29T04:05:47.311Z,99555.20
2018-09-29T04:06:18.413Z,99556.97
2018-09-29T04:06:49.579Z,99553.52
2018-09-29T04:07:20.696Z,99562.17
2018-09-29T04:07:51.827Z,99550.46
2018-09-29T04:08:22.977Z,99550.00
2018-09-29T04:08:54.071Z,99548.31
2018-09-29T04:09:25.203Z,99555.20
2018-09-29T04:09:56.311Z,99549.16
2018-09-29T04:10:27.464Z,99554.36
2018-09-29T04:10:58.598Z,99550.05
2018-09-29T04:11:29.718Z,99546.59
2018-09-29T04:12:00.849Z,99545.25
2018-09-29T04:12:31.951Z,99548.31
2018-09-29T04:13:03.059Z,99546.97
2018-09-29T04:13:34.160Z,99544.28
2018-09-29T04:14:05.283Z,99542.09
2018-09-29T04:14:36.399Z,99547.30
2018-09-29T04:15:07.581Z,99544.22
2018-09-29T04:15:38.693Z,99547.62
2018-09-29T04:16:09.817Z,99547.23
2018-09-29T04:16:40.948Z,99544.22
2018-09-29T04:17:12.072Z,99550.73
2018-09-29T04:17:43.171Z,99544.70
2018-09-29T04:18:14.266Z,99553.48
2018-09-29T04:18:45.377Z,99548.33
2018-09-29T04:19:16.470Z,99553.11
2018-09-29T04:19:47.604Z,99550.46
2018-09-29T04:20:18.716Z,99548.27
2018-09-29T04:20:49.813Z,99544.78
2018-09-29T04:21:20.913Z,99548.23
2018-09-29T04:21:52.010Z,99546.45
2018-09-29T04:22:23.111Z,99547.67
2018-09-29T04:22:54.249Z,99548.92
2018-09-29T04:23:25.354Z,99548.03
2018-09-29T04:23:56.459Z,99547.09
2018-09-29T04:24:27.618Z,99542.69
2018-09-29T04:24:58.739Z,99548.27
2018-09-29T04:25:29.865Z,99549.50
2018-09-29T04:26:00.965Z,99553.73
2018-09-29T04:26:32.082Z,99544.52
2018-09-29T04:27:03.183Z,99546.55
2018-09-29T04:27:34.273Z,99547.70
2018-09-29T04:28:05.392Z,99548.94
2018-09-29T04:28:36.517Z,99544.88
2018-09-29T04:29:07.643Z,99549.52
2018-09-29T04:29:38.810Z,99550.19
2018-09-29T04:30:09.949Z,99543.92
2018-09-29T04:30:41.076Z,99548.98
2018-09-29T04:31:12.174Z,99547.00
2018-09-29T04:31:43.306Z,99549.85
2018-09-29T04:32:14.424Z,99544.94
2018-09-29T04:32:45.521Z,99546.02
2018-09-29T04:33:16.643Z,99542.30
2018-09-29T04:33:47.751Z,99543.31
2018-09-29T04:34:18.859Z,99539.94
2018-09-29T04:34:50.031Z,99543.67
2018-09-29T04:35:21.174Z,99544.69
2018-09-29T04:35:52.306Z,99538.80
2018-09-29T04:36:23.456Z,99543.73
2018-09-29T04:36:54.616Z,99539.98
2018-09-29T04:37:25.787Z,99541.41
2018-09-29T04:37:56.922Z,99540.27
2018-09-29T04:38:28.073Z,99536.52
2018-09-29T04:38:59.192Z,99535.42
2018-09-29T04:39:30.302Z,99538.97
2018-09-29T04:40:01.463Z,99535.20
2018-09-29T04:40:32.620Z,99538.84
2018-09-29T04:41:03.746Z,99536.45
2018-09-29T04:41:34.869Z,99535.75
2018-09-29T04:42:05.976Z,99537.70
2018-09-29T04:42:37.134Z,99537.83
2018-09-29T04:43:08.298Z,99541.11
2018-09-29T04:43:39.404Z,99541.24
2018-09-29T04:44:10.524Z,99542.37
2018-09-29T04:44:41.686Z,99542.06
2018-09-29T04:45:12.786Z,99542.68
2018-09-29T04:45:43.918Z,99542.38
2018-09-29T04:46:15.085Z,99543.39
2018-09-29T04:46:46.189Z,99543.86
2018-09-29T04:47:17.294Z,99544.84
2018-09-29T04:47:48.412Z,99535.52
2018-09-29T04:48:19.539Z,99540.36
2018-09-29T04:48:50.651Z,99533.52
2018-09-29T04:49:21.783Z,99533.22
2018-09-29T04:49:52.910Z,99541.24
2018-09-29T04:50:24.061Z,99541.41
2018-09-29T04:50:55.179Z,99539.25
2018-09-29T04:51:26.282Z,99542.44
2018-09-29T04:51:57.428Z,99540.24
2018-09-29T04:52:28.528Z,99535.63
2018-09-29T04:52:59.641Z,99541.80
2018-09-29T04:53:30.738Z,99538.99
2018-09-29T04:54:01.851Z,99540.63
2018-09-29T04:54:32.958Z,99538.41
2018-09-29T04:55:04.072Z,99535.46
2018-09-29T04:55:35.203Z,99530.00
2018-09-29T04:56:06.298Z,99526.31
2018-09-29T04:56:37.466Z,99524.92
2018-09-29T04:57:08.625Z,99527.06
2018-09-29T04:57:39.802Z,99526.48
2018-09-29T04:58:10.945Z,99524.60
2018-09-29T04:58:42.038Z,99521.23
2018-09-29T04:59:13.129Z,99529.23
2018-09-29T04:59:44.235Z,99529.50
2018-09-29T05:00:15.362Z,99530.66
2018-09-29T05:00:46.478Z,99534.09
2018-09-29T05:01:17.582Z,99531.86
2018-09-29T05:01:48.702Z,99529.24
2018-09-29T05:02:19.806Z,99531.97
2018-09-29T05:02:51.013Z,99527.71
2018-09-29T05:03:22.110Z,99530.88
2018-09-29T05:03:53.228Z,99530.92
2018-09-29T05:04:24.355Z,99523.05
2018-09-29T05:04:55.491Z,99528.26
2018-09-29T05:05:26.604Z,99530.81
2018-09-29T05:05:57.722Z,99528.59
2018-09-29T05:06:28.862Z,99530.30
2018-09-29T05:06:59.992Z,99530.23
2018-09-29T05:07:31.102Z,99528.27
2018-09-29T05:08:02.257Z,99528.73
2018-09-29T05:08:33.394Z,99527.64
2018-09-29T05:09:04.507Z,99533.89
2018-09-29T05:09:35.612Z,99526.09
2018-09-29T05:10:06.767Z,99529.22
2018-09-29T05:10:37.886Z,99527.47
2018-09-29T05:11:09.019Z,99524.84
2018-09-29T05:11:40.171Z,99531.77
2018-09-29T05:12:11.282Z,99527.98
2018-09-29T05:12:42.421Z,99528.37
2018-09-29T05:13:13.526Z,99527.19
2018-09-29T05:13:44.632Z,99526.93
2018-09-29T05:14:15.747Z,99525.30
2018-09-29T05:14:46.847Z,99528.10
2018-09-29T05:15:17.970Z,99525.08
2018-09-29T05:15:49.127Z,99526.03
2018-09-29T05:16:20.284Z,99527.19
2018-09-29T05:16:51.450Z,99520.23
2018-09-29T05:17:22.571Z,99522.45
2018-09-29T05:17:53.690Z,99516.70
2018-09-29T05:18:24.809Z,99520.13
2018-09-29T05:18:55.969Z,99516.55
2018-09-29T05:19:27.077Z,99524.17
2018-09-29T05:19:58.179Z,99523.77
2018-09-29T05:20:29.321Z,99525.55
2018-09-29T05:21:00.444Z,99527.45
2018-09-29T05:21:31.549Z,99526.66
2018-09-29T05:22:02.658Z,99522.87
2018-09-29T05:22:33.828Z,99527.61
2018-09-29T05:23:04.982Z,99525.71
2018-09-29T05:23:36.062Z,99529.31
2018-09-29T05:24:07.167Z,99528.05
2018-09-29T05:24:38.281Z,99530.16
2018-09-29T05:25:09.379Z,99530.48
2018-09-29T05:25:40.516Z,99530.70
2018-09-29T05:26:11.613Z,99532.67
2018-09-29T05:26:42.758Z,99534.66
2018-09-29T05:27:13.898Z,99534.66
2018-09-29T05:27:45.061Z,99532.95
2018-09-29T05:28:16.191Z,99533.87
2018-09-29T05:28:47.302Z,99535.69
2018-09-29T05:29:18.427Z,99541.84
2018-09-29T05:29:49.536Z,99538.75
2018-09-29T05:30:20.657Z,99542.53
2018-09-29T05:30:51.903Z,99535.72
2018-09-29T05:31:22.945Z,99535.72
2018-09-29T05:31:54.058Z,99533.53
2018-09-29T05:32:25.197Z,99538.86
2018-09-29T05:32:56.361Z,99537.03
2018-09-29T05:33:27.491Z,99536.37
2018-09-29T05:33:58.608Z,99533.23
2018-09-29T05:34:29.716Z,99539.06
2018-09-29T05:35:00.814Z,99535.20
2018-09-29T05:35:31.931Z,99537.83
2018-09-29T05:36:03.048Z,99534.27
2018-09-29T05:36:34.156Z,99541.15
2018-09-29T05:37:05.278Z,99538.59
2018-09-29T05:37:36.437Z,99539.51
2018-09-29T05:38:07.597Z,99538.48
2018-09-29T05:38:38.751Z,99537.90
2018-09-29T05:39:09.858Z,99538.40
2018-09-29T05:39:40.975Z,99536.10
2018-09-29T05:40:12.111Z,99538.33
2018-09-29T05:40:43.214Z,99536.97
2018-09-29T05:41:14.309Z,99532.05
2018-09-29T05:41:45.434Z,99531.78
2018-09-29T05:42:16.536Z,99532.15
2018-09-29T05:42:47.721Z,99535.84
2018-09-29T05:43:18.822Z,99533.36
2018-09-29T05:43:49.957Z,99533.77
2018-09-29T05:44:21.070Z,99528.52
2018-09-29T05:44:52.204Z,99527.05
2018-09-29T05:45:23.374Z,99533.27
2018-09-29T05:45:54.489Z,99533.16
2018-09-29T05:46:25.631Z,99527.68
2018-09-29T05:46:56.746Z,99525.84
2018-09-29T05:47:27.854Z,99529.39
2018-09-29T05:47:59.041Z,99529.79
2018-09-29T05:48:30.202Z,99527.56
2018-09-29T05:49:01.310Z,99535.09
2018-09-29T05:49:32.407Z,99529.64
2018-09-29T05:50:03.541Z,99532.51
2018-09-29T05:50:34.706Z,99534.06
2018-09-29T05:51:05.827Z,99528.17
2018-09-29T05:51:36.922Z,99530.67
2018-09-29T05:52:08.066Z,99533.05
2018-09-29T05:52:39.197Z,99529.91
2018-09-29T05:53:10.335Z,99527.53
2018-09-29T05:53:41.481Z,99535.41
2018-09-29T05:54:12.610Z,99534.89
2018-09-29T05:54:43.731Z,99535.66
2018-09-29T05:55:14.834Z,99535.53
2018-09-29T05:55:45.938Z,99532.75
2018-09-29T05:56:17.043Z,99530.09
2018-09-29T05:56:48.175Z,99537.02
2018-09-29T05:57:19.292Z,99526.86
2018-09-29T05:57:50.398Z,99534.66
2018-09-29T05:58:21.654Z,99529.18
2018-09-29T05:58:52.811Z,99529.05
2018-09-29T05:59:23.949Z,99533.63
2018-09-29T05:59:55.084Z,99531.72
2018-09-29T06:00:26.238Z,99535.98
2018-09-29T06:00:57.370Z,99535.98
2018-09-29T06:01:28.479Z,99537.22
2018-09-29T06:01:59.591Z,99537.92
2018-09-29T06:02:30.733Z,99540.27
2018-09-29T06:03:01.844Z,99542.78
2018-09-29T06:03:32.951Z,99539.36
2018-09-29T06:04:04.091Z,99542.78
2018-09-29T06:04:35.222Z,99540.94
2018-09-29T06:05:06.336Z,99538.71
2018-09-29T06:05:37.512Z,99542.20